Time;durP1;ratioP1;P1;durP2;ratioP2;P2;SDS_P1;SDS_P2;PMS_P1;PMS_P2;Temp;Humidity;BMP_temperature;BMP_pressure;BME280_temperature;BME280_humidity;BME280_pressure;Samples;Min_cycle;Max_cycle;Signal;HPM_P1;HPM_P2
2022/07/08 04:02:15;;;;;;;5.70;2.10;;;14.90;99.90;;;;;;5136969;23;20499;-67
2022/07/08 04:04:42;;;;;;;4.80;2.63;;;14.90;99.90;;;;;;4966171;28;20461;-67
2022/07/08 04:07:09;;;;;;;5.83;2.00;;;14.90;99.90;;;;;;4985064;28;20465;-67
2022/07/08 04:09:36;;;;;;;7.67;3.47;;;14.90;99.90;;;;;;4972428;28;20490;-67
2022/07/08 04:12:03;;;;;;;8.93;2.10;;;15.00;99.90;;;;;;4972348;28;20515;-66
2022/07/08 04:14:29;;;;;;;4.27;2.53;;;15.00;99.90;;;;;;4993701;23;20504;-70
2022/07/08 04:16:56;;;;;;;7.83;2.77;;;15.10;99.90;;;;;;4973623;28;20472;-71
2022/07/08 04:19:25;;;;;;;5.60;2.43;;;15.20;99.90;;;;;;4972193;28;20471;-71
2022/07/08 04:21:52;;;;;;;4.37;2.53;;;15.20;99.90;;;;;;4973107;28;20456;-71
2022/07/08 04:24:19;;;;;;;5.57;2.60;;;15.20;99.90;;;;;;4970054;28;20480;-72
2022/07/08 04:26:45;;;;;;;6.70;2.57;;;15.30;99.90;;;;;;4947606;29;20487;-71
2022/07/08 04:29:12;;;;;;;8.50;2.60;;;15.30;99.90;;;;;;4951006;29;20469;-71
2022/07/08 04:31:39;;;;;;;5.43;2.20;;;15.30;99.90;;;;;;4953331;29;21032;-71
2022/07/08 04:34:05;;;;;;;4.87;2.70;;;15.30;99.90;;;;;;4953342;28;20461;-70
2022/07/08 04:36:34;;;;;;;8.00;2.33;;;15.30;99.90;;;;;;4954017;29;20469;-70
2022/07/08 04:39:00;;;;;;;6.70;2.00;;;15.40;99.90;;;;;;4953611;29;20461;-71
2022/07/08 04:41:27;;;;;;;5.67;2.70;;;15.30;99.90;;;;;;4953720;29;20467;-71
2022/07/08 04:43:54;;;;;;;5.90;2.40;;;15.30;99.90;;;;;;4953206;29;20476;-71
2022/07/08 04:46:20;;;;;;;10.40;2.47;;;15.30;99.90;;;;;;4953460;28;21011;-71
2022/07/08 04:48:47;;;;;;;4.57;2.20;;;15.30;99.90;;;;;;4953266;29;20456;-71
2022/07/08 04:51:14;;;;;;;5.83;2.33;;;15.40;99.90;;;;;;4953414;29;20471;-70
2022/07/08 04:53:42;;;;;;;3.87;1.80;;;15.40;99.90;;;;;;4954102;29;20463;-70
2022/07/08 04:56:08;;;;;;;4.50;2.10;;;15.50;99.90;;;;;;4952102;28;20997;-70
2022/07/08 04:58:35;;;;;;;11.73;2.27;;;15.60;99.90;;;;;;4950941;29;20473;-70
2022/07/08 05:01:02;;;;;;;2.23;2.00;;;15.70;99.90;;;;;;4952133;29;20484;-70
2022/07/08 05:03:28;;;;;;;5.33;2.40;;;15.70;99.90;;;;;;4952678;29;20465;-70
2022/07/08 05:05:55;;;;;;;7.10;2.73;;;15.80;99.90;;;;;;4950262;29;20484;-70
2022/07/08 05:08:22;;;;;;;6.07;2.33;;;15.90;99.90;;;;;;4950541;29;20469;-70
2022/07/08 05:10:50;;;;;;;7.93;2.73;;;16.00;99.90;;;;;;4951594;29;20460;-70
2022/07/08 05:13:17;;;;;;;8.77;2.83;;;16.00;99.90;;;;;;4951358;29;20496;-70
2022/07/08 05:15:43;;;;;;;3.17;2.20;;;16.00;99.90;;;;;;4944106;28;20580;-70
2022/07/08 05:18:10;;;;;;;3.90;1.90;;;16.00;99.90;;;;;;4946902;29;20476;-70
2022/07/08 05:20:37;;;;;;;4.93;1.97;;;16.00;99.90;;;;;;4951846;29;20467;-69
2022/07/08 05:23:04;;;;;;;5.20;2.20;;;16.00;99.90;;;;;;4951230;29;20461;-70
2022/07/08 05:25:30;;;;;;;4.13;1.90;;;16.00;99.90;;;;;;4952881;28;20498;-70
2022/07/08 05:27:58;;;;;;;4.47;1.90;;;16.10;99.90;;;;;;4949827;29;20476;-70
2022/07/08 05:30:25;;;;;;;7.60;2.20;;;16.20;99.90;;;;;;4951647;29;20979;-70
2022/07/08 05:32:52;;;;;;;4.13;2.13;;;16.50;99.90;;;;;;4950508;29;20519;-70
2022/07/08 05:35:19;;;;;;;4.60;1.43;;;17.00;99.90;;;;;;4949455;28;20492;-70
2022/07/08 05:37:46;;;;;;;3.50;1.70;;;17.20;99.90;;;;;;4950527;29;20500;-70
2022/07/08 05:40:13;;;;;;;4.33;2.07;;;17.20;99.90;;;;;;4951130;29;20461;-70
2022/07/08 05:42:40;;;;;;;4.63;2.17;;;17.10;99.90;;;;;;4951719;29;20464;-71
2022/07/08 05:45:09;;;;;;;5.97;1.80;;;17.00;99.90;;;;;;4951422;28;20555;-70
2022/07/08 05:47:36;;;;;;;3.03;1.70;;;16.90;99.90;;;;;;4950612;29;20564;-71
2022/07/08 05:50:03;;;;;;;4.37;2.23;;;17.10;99.90;;;;;;4950640;29;20468;-69
2022/07/08 05:52:30;;;;;;;5.87;2.10;;;17.40;99.90;;;;;;4951663;29;20484;-69
2022/07/08 05:54:56;;;;;;;9.90;2.30;;;17.70;99.90;;;;;;4950410;28;20508;-69
2022/07/08 05:57:24;;;;;;;5.43;1.90;;;17.90;99.90;;;;;;4947478;29;20465;-69
2022/07/08 05:59:51;;;;;;;4.63;2.23;;;18.10;99.90;;;;;;4949599;29;20473;-69
2022/07/08 06:02:19;;;;;;;5.70;1.60;;;18.50;99.90;;;;;;4949662;29;20492;-69
2022/07/08 06:04:46;;;;;;;7.67;2.07;;;19.10;99.90;;;;;;4936944;29;20497;-70
2022/07/08 06:07:13;;;;;;;6.10;1.93;;;19.90;99.90;;;;;;4954272;28;20464;-70
2022/07/08 06:09:39;;;;;;;3.53;1.80;;;20.50;99.90;;;;;;4953049;29;20957;-69
2022/07/08 06:12:07;;;;;;;4.90;1.87;;;21.30;99.90;;;;;;4954106;29;20481;-69
2022/07/08 06:14:34;;;;;;;3.57;2.00;;;21.80;99.90;;;;;;4952917;28;20534;-71
2022/07/08 06:17:00;;;;;;;3.57;1.50;;;21.80;99.90;;;;;;4953883;29;20467;-71
2022/07/08 06:19:28;;;;;;;4.10;1.40;;;21.40;99.90;;;;;;4953205;29;20468;-71
2022/07/08 06:21:56;;;;;;;3.80;1.50;;;20.90;99.90;;;;;;4955312;29;20467;-71
2022/07/08 06:24:23;;;;;;;3.30;1.73;;;20.80;99.90;;;;;;4952894;28;20496;-72
2022/07/08 06:26:49;;;;;;;4.50;1.27;;;21.10;99.90;;;;;;4955004;29;20483;-70
2022/07/08 06:29:16;;;;;;;2.30;1.70;;;21.10;99.90;;;;;;4954740;29;20468;-71
2022/07/08 06:31:43;;;;;;;4.30;2.17;;;20.60;99.90;;;;;;4955188;29;20471;-71
2022/07/08 06:34:10;;;;;;;4.33;2.03;;;20.70;99.90;;;;;;4953181;28;20499;-71
2022/07/08 06:36:38;;;;;;;2.73;2.13;;;20.90;99.90;;;;;;4946444;29;20473;-71
2022/07/08 06:39:04;;;;;;;2.87;2.03;;;20.50;99.90;;;;;;4954825;29;20471;-71
2022/07/08 06:41:31;;;;;;;3.97;1.70;;;20.00;99.90;;;;;;4955090;29;20488;-71
2022/07/08 06:43:58;;;;;;;4.43;2.40;;;19.90;99.90;;;;;;4950171;29;20469;-71
2022/07/08 06:46:25;;;;;;;2.37;1.67;;;19.70;99.90;;;;;;4954804;29;20468;-72
2022/07/08 06:48:52;;;;;;;4.67;2.23;;;19.90;99.90;;;;;;4954385;28;20457;-71
2022/07/08 06:51:19;;;;;;;6.13;1.80;;;20.40;99.90;;;;;;4954545;29;20461;-71
2022/07/08 06:56:31;;;;;;;3.40;2.00;;;21.30;99.90;;;;;;4955095;29;20592;-71
2022/07/08 06:58:58;;;;;;;6.40;1.90;;;21.10;99.90;;;;;;4952428;29;20477;-71
2022/07/08 07:01:24;;;;;;;6.03;1.90;;;20.70;99.90;;;;;;4954998;28;20481;-71
2022/07/08 07:03:51;;;;;;;2.73;2.10;;;20.60;99.90;;;;;;4947879;28;20468;-70
2022/07/08 07:06:18;;;;;;;2.40;1.77;;;21.00;99.90;;;;;;4953161;28;20495;-70
2022/07/08 07:08:46;;;;;;;4.60;1.80;;;21.00;99.90;;;;;;4935704;29;20572;-71
2022/07/08 07:11:14;;;;;;;5.07;1.43;;;21.10;99.90;;;;;;4936628;29;20478;-71
2022/07/08 07:13:41;;;;;;;6.47;2.67;;;21.60;99.90;;;;;;4944725;28;20495;-70
2022/07/08 07:16:08;;;;;;;1.93;1.73;;;21.90;99.90;;;;;;4952895;28;20496;-71
2022/07/08 07:18:35;;;;;;;3.13;1.47;;;21.80;99.90;;;;;;4952985;28;20475;-73
2022/07/08 07:21:02;;;;;;;1.83;1.50;;;21.30;99.90;;;;;;4953687;29;20464;-72
2022/07/08 07:23:28;;;;;;;1.93;1.70;;;20.80;99.90;;;;;;4952799;29;20847;-71
2022/07/08 07:25:55;;;;;;;4.53;1.80;;;20.60;99.90;;;;;;4951465;29;20485;-71
2022/07/08 07:28:23;;;;;;;1.80;1.70;;;20.50;99.90;;;;;;4953620;29;20468;-71
2022/07/08 07:30:50;;;;;;;2.07;1.80;;;20.30;99.90;;;;;;4953901;29;20512;-71
2022/07/08 07:33:17;;;;;;;1.30;1.20;;;20.80;99.90;;;;;;4952726;29;20493;-71
2022/07/08 07:35:43;;;;;;;5.33;1.40;;;20.80;99.90;;;;;;4954298;28;20487;-71
2022/07/08 07:38:10;;;;;;;3.20;1.60;;;20.40;99.90;;;;;;4954157;29;20476;-70
2022/07/08 07:40:37;;;;;;;4.33;1.73;;;20.60;99.90;;;;;;4953581;29;20467;-71
2022/07/08 07:43:03;;;;;;;2.97;1.33;;;20.60;99.90;;;;;;4953287;29;20899;-72
2022/07/08 07:45:31;;;;;;;5.87;2.73;;;20.80;99.90;;;;;;4953387;28;20480;-72
2022/07/08 07:47:58;;;;;;;1.90;1.50;;;20.80;99.90;;;;;;4953329;28;20475;-71
2022/07/08 07:50:26;;;;;;;4.70;1.93;;;20.60;99.90;;;;;;4953605;29;20465;-71
2022/07/08 07:52:53;;;;;;;3.03;1.87;;;20.40;99.90;;;;;;4951647;29;20492;-71
2022/07/08 07:55:20;;;;;;;2.50;1.37;;;19.90;99.90;;;;;;4953395;28;20854;-71
2022/07/08 07:57:48;;;;;;;2.93;1.53;;;20.50;99.90;;;;;;4953122;28;20465;-71
2022/07/08 08:00:16;;;;;;;2.33;1.40;;;21.40;99.90;;;;;;4953353;29;20468;-71
2022/07/08 08:02:45;;;;;;;3.40;1.53;;;21.70;99.90;;;;;;4951504;29;20990;-71
2022/07/08 08:05:13;;;;;;;1.60;1.50;;;21.80;99.90;;;;;;4948920;29;20580;-71
2022/07/08 08:07:41;;;;;;;3.30;1.50;;;21.90;99.90;;;;;;4943241;29;20466;-70
2022/07/08 08:10:11;;;;;;;3.00;1.80;;;21.50;99.90;;;;;;4939582;29;20976;-70
2022/07/08 08:12:37;;;;;;;4.00;1.40;;;21.20;99.90;;;;;;4952343;29;21051;-71
2022/07/08 08:15:05;;;;;;;7.90;2.07;;;21.00;99.90;;;;;;4952210;28;20515;-70
2022/07/08 08:17:36;;;;;;;3.60;2.10;;;20.70;99.90;;;;;;4953470;29;21116;-70
2022/07/08 08:20:05;;;;;;;5.50;1.60;;;20.50;99.90;;;;;;4952636;29;20847;-70
2022/07/08 08:22:32;;;;;;;2.63;2.07;;;20.40;99.90;;;;;;4951535;29;20472;-72
2022/07/08 08:24:59;;;;;;;4.23;1.97;;;20.10;99.90;;;;;;4951776;28;20493;-71
2022/07/08 08:27:25;;;;;;;5.70;2.43;;;20.00;99.90;;;;;;4953572;29;20472;-71
2022/07/08 08:29:52;;;;;;;2.60;1.43;;;20.00;99.90;;;;;;4952023;28;20532;-71
2022/07/08 08:32:19;;;;;;;5.63;1.87;;;20.00;99.90;;;;;;4942687;29;20473;-70
2022/07/08 08:34:46;;;;;;;2.40;2.03;;;19.90;99.90;;;;;;4951231;28;20495;-70
2022/07/08 08:37:14;;;;;;;6.90;2.33;;;19.70;99.90;;;;;;4948561;29;20536;-71
2022/07/08 08:39:41;;;;;;;2.23;2.00;;;19.50;99.90;;;;;;4951990;28;20465;-70
2022/07/08 08:42:09;;;;;;;4.90;2.40;;;19.30;99.90;;;;;;4951658;29;20479;-71
2022/07/08 08:44:35;;;;;;;5.27;2.67;;;19.20;99.90;;;;;;4951057;28;20482;-70
2022/07/08 08:47:04;;;;;;;6.13;2.10;;;19.10;99.90;;;;;;4952248;29;20465;-71
2022/07/08 08:49:35;;;;;;;2.43;2.23;;;18.90;99.90;;;;;;4950429;29;20467;-71
2022/07/08 08:52:04;;;;;;;2.00;1.90;;;18.80;99.90;;;;;;4952268;29;20471;-70
2022/07/08 08:54:35;;;;;;;2.33;2.23;;;18.60;99.90;;;;;;4948867;28;20909;-71
2022/07/08 08:57:02;;;;;;;2.67;2.57;;;18.50;99.90;;;;;;4952132;29;20489;-74
2022/07/08 08:59:29;;;;;;;2.73;2.60;;;18.50;99.90;;;;;;4952069;29;20571;-73
2022/07/08 09:01:57;;;;;;;5.77;2.33;;;18.50;99.90;;;;;;4952894;29;20465;-71
2022/07/08 09:04:25;;;;;;;5.17;2.27;;;18.60;99.90;;;;;;4950705;28;20484;-71
2022/07/08 09:06:51;;;;;;;4.30;1.93;;;18.60;99.90;;;;;;4952769;29;20461;-70
2022/07/08 09:09:18;;;;;;;4.40;2.37;;;18.50;99.90;;;;;;4952769;29;20468;-70
2022/07/08 09:11:46;;;;;;;1.80;1.70;;;18.50;99.90;;;;;;4952369;29;20464;-70
2022/07/08 09:14:17;;;;;;;5.00;2.10;;;18.60;99.90;;;;;;4950492;28;20495;-71
2022/07/08 09:17:09;;;;;;;11.53;2.90;;;18.80;99.90;;;;;;4945023;29;20824;-70
2022/07/08 09:19:37;;;;;;;4.60;1.87;;;18.90;99.90;;;;;;4951890;28;20531;-70
2022/07/08 09:22:05;;;;;;;1.97;1.87;;;18.80;99.90;;;;;;4952820;29;20527;-70
2022/07/08 09:24:32;;;;;;;2.67;1.93;;;18.60;99.90;;;;;;4951556;28;20496;-71
2022/07/08 09:27:04;;;;;;;3.60;1.73;;;18.70;99.90;;;;;;4952997;29;20473;-72
2022/07/08 09:29:32;;;;;;;3.47;2.60;;;18.60;99.90;;;;;;4951626;28;20465;-71
2022/07/08 09:32:10;;;;;;;6.10;1.50;;;18.70;99.90;;;;;;4952823;29;20823;-70
2022/07/08 09:34:37;;;;;;;3.90;2.70;;;18.70;99.90;;;;;;4950474;28;20492;-71
2022/07/08 09:37:11;;;;;;;3.67;2.23;;;18.90;99.90;;;;;;4951498;29;20992;-71
2022/07/08 09:39:38;;;;;;;2.07;1.90;;;19.30;99.90;;;;;;4948883;29;20468;-70
2022/07/08 09:42:08;;;;;;;2.30;1.67;;;19.30;99.90;;;;;;4954861;28;20579;-70
2022/07/08 09:44:35;;;;;;;3.33;2.30;;;19.40;99.90;;;;;;4954587;28;20850;-70
2022/07/08 09:47:08;;;;;;;3.17;1.70;;;19.50;99.90;;;;;;4956166;29;20832;-70
2022/07/08 09:49:35;;;;;;;5.33;1.90;;;19.60;99.90;;;;;;4955574;28;20499;-70
2022/07/08 09:52:02;;;;;;;2.10;2.00;;;19.40;99.90;;;;;;4956197;29;20460;-71
2022/07/08 09:54:29;;;;;;;2.20;1.93;;;19.10;99.90;;;;;;4954477;28;20567;-72
2022/07/08 09:57:01;;;;;;;2.00;1.90;;;19.10;99.90;;;;;;4955936;29;20465;-72
2022/07/08 09:59:30;;;;;;;2.03;1.93;;;19.10;99.90;;;;;;4955231;29;20460;-69
2022/07/08 10:01:57;;;;;;;1.93;1.83;;;19.30;99.90;;;;;;4955829;29;20540;-71
2022/07/08 10:04:24;;;;;;;4.80;3.00;;;19.60;99.90;;;;;;4952522;28;20980;-69
2022/07/08 10:06:51;;;;;;;6.00;2.37;;;19.60;99.90;;;;;;4954637;29;20464;-70
2022/07/08 10:09:18;;;;;;;1.60;1.57;;;19.50;99.90;;;;;;4955467;29;20936;-69
2022/07/08 10:11:46;;;;;;;2.77;1.80;;;19.50;99.90;;;;;;4954743;29;20952;-70
2022/07/08 10:14:14;;;;;;;3.87;1.87;;;19.50;99.90;;;;;;4953714;28;20522;-69
2022/07/08 10:16:43;;;;;;;5.50;1.73;;;19.70;99.90;;;;;;4955866;29;20465;-70
2022/07/08 10:19:14;;;;;;;2.47;1.73;;;19.90;99.90;;;;;;4955060;29;20472;-70
2022/07/08 10:21:44;;;;;;;4.87;1.77;;;20.00;99.90;;;;;;4954946;29;20828;-69
2022/07/08 10:24:18;;;;;;;3.93;1.60;;;20.10;99.90;;;;;;4954132;28;20472;-70
2022/07/08 10:26:45;;;;;;;2.20;1.60;;;20.20;99.90;;;;;;4947517;29;20969;-70
2022/07/08 10:29:12;;;;;;;1.73;1.60;;;20.50;99.90;;;;;;4954782;29;20475;-70
2022/07/08 10:31:46;;;;;;;2.07;1.73;;;20.80;99.90;;;;;;4954874;29;20464;-70
2022/07/08 10:34:13;;;;;;;2.13;2.13;;;20.90;99.90;;;;;;4953648;28;20480;-70
2022/07/08 10:36:47;;;;;;;1.77;1.53;;;20.80;99.90;;;;;;4948889;29;20476;-70
2022/07/08 10:39:15;;;;;;;3.00;1.40;;;20.80;99.90;;;;;;4951191;29;20480;-70
2022/07/08 10:41:57;;;;;;;1.27;1.13;;;20.60;99.90;;;;;;4954736;29;20974;-67
2022/07/08 10:44:49;;;;;;;1.50;1.50;;;20.40;99.90;;;;;;4940524;28;21005;-68
2022/07/08 10:47:18;;;;;;;1.37;1.17;;;20.30;99.90;;;;;;4954361;29;20855;-70
2022/07/08 10:49:46;;;;;;;1.07;1.07;;;20.20;99.90;;;;;;4958836;28;20463;-70
2022/07/08 10:52:12;;;;;;;0.97;0.90;;;20.60;99.90;;;;;;4957085;28;20495;-70
2022/07/08 10:54:40;;;;;;;1.67;1.20;;;20.90;99.90;;;;;;4952709;28;20997;-70
2022/07/08 10:57:15;;;;;;;1.40;1.30;;;21.10;99.90;;;;;;4955046;29;20469;-70
2022/07/08 10:59:42;;;;;;;1.43;1.10;;;21.10;99.90;;;;;;4952090;29;20475;-70
2022/07/08 11:02:11;;;;;;;0.90;0.90;;;20.80;99.90;;;;;;4951933;29;20472;-69
2022/07/08 11:04:46;;;;;;;1.07;1.07;;;20.60;99.90;;;;;;4951409;28;20579;-69
2022/07/08 11:07:25;;;;;;;1.00;1.00;;;20.30;99.90;;;;;;4954887;29;20487;-68
2022/07/08 11:09:54;;;;;;;1.80;0.80;;;20.20;99.90;;;;;;4954136;29;20468;-69
2022/07/08 11:12:22;;;;;;;0.97;0.97;;;19.80;99.90;;;;;;4947064;29;20962;-69
2022/07/08 11:14:51;;;;;;;1.03;1.03;;;19.70;99.90;;;;;;4951256;28;20507;-70
2022/07/08 11:17:18;;;;;;;0.83;0.83;;;19.50;99.90;;;;;;4950305;29;20468;-70
2022/07/08 11:19:48;;;;;;;1.10;1.00;;;19.50;99.90;;;;;;4953360;29;20468;-70
2022/07/08 11:22:15;;;;;;;1.00;1.00;;;19.40;99.90;;;;;;4954095;29;20456;-71
2022/07/08 11:24:44;;;;;;;1.40;1.30;;;19.40;99.90;;;;;;4951843;28;20492;-72
2022/07/08 11:27:12;;;;;;;0.90;0.90;;;19.30;99.90;;;;;;4950559;29;20469;-71
2022/07/08 11:29:47;;;;;;;1.60;0.73;;;19.30;99.90;;;;;;4952416;28;20507;-70
2022/07/08 11:32:13;;;;;;;1.00;1.00;;;19.30;99.90;;;;;;4948400;29;20500;-70
2022/07/08 11:34:40;;;;;;;0.90;0.90;;;19.40;99.90;;;;;;4951088;28;20523;-71
2022/07/08 11:37:08;;;;;;;1.00;1.00;;;19.50;99.90;;;;;;4954561;29;20461;-71
2022/07/08 11:39:35;;;;;;;0.80;0.80;;;19.60;99.90;;;;;;4953175;29;20472;-71
2022/07/08 11:42:02;;;;;;;2.10;0.97;;;19.60;99.90;;;;;;4953156;29;20478;-72
2022/07/08 11:44:29;;;;;;;0.90;0.90;;;19.70;99.90;;;;;;4953356;28;20476;-71
2022/07/08 11:46:56;;;;;;;0.93;0.93;;;19.80;99.90;;;;;;4954042;29;20872;-71
2022/07/08 11:49:24;;;;;;;1.10;0.97;;;19.90;99.90;;;;;;4953023;29;20519;-71
2022/07/08 11:51:52;;;;;;;1.10;1.10;;;20.20;99.90;;;;;;4951704;29;20883;-71
2022/07/08 11:54:22;;;;;;;0.87;0.70;;;20.30;99.90;;;;;;4953602;28;20570;-71
2022/07/08 11:56:52;;;;;;;1.03;0.87;;;20.30;99.90;;;;;;4953726;29;20944;-71
2022/07/08 11:59:21;;;;;;;1.03;0.90;;;20.30;99.90;;;;;;4953444;29;20958;-71
2022/07/08 12:01:49;;;;;;;0.90;0.90;;;20.10;99.90;;;;;;4952327;29;20464;-71
2022/07/08 12:04:16;;;;;;;0.83;0.83;;;20.30;99.90;;;;;;4947477;28;20848;-70
2022/07/08 12:06:46;;;;;;;0.80;0.80;;;20.50;99.90;;;;;;4953695;28;20471;-70
2022/07/08 12:09:13;;;;;;;0.83;0.83;;;20.70;99.90;;;;;;4953761;29;20476;-71
2022/07/08 12:11:43;;;;;;;1.13;1.13;;;20.80;99.90;;;;;;4952532;29;20465;-71
2022/07/08 12:14:10;;;;;;;0.97;0.93;;;20.80;99.90;;;;;;4952408;28;20592;-70
2022/07/08 12:16:43;;;;;;;1.07;0.87;;;21.00;99.90;;;;;;4951584;29;20488;-70
2022/07/08 12:19:25;;;;;;;0.90;0.90;;;21.10;99.90;;;;;;4952597;29;20555;-71
2022/07/08 12:21:52;;;;;;;2.43;1.00;;;21.10;99.90;;;;;;4947872;29;20463;-69
2022/07/08 12:24:24;;;;;;;0.87;0.87;;;21.10;99.90;;;;;;4953168;28;20457;-71
2022/07/08 12:26:56;;;;;;;2.07;1.10;;;20.90;99.90;;;;;;4952345;29;20460;-72
2022/07/08 12:29:24;;;;;;;1.60;1.60;;;21.00;99.90;;;;;;4951604;29;20453;-72
2022/07/08 12:31:50;;;;;;;0.90;0.90;;;21.10;99.90;;;;;;4952605;28;20496;-71
2022/07/08 12:34:18;;;;;;;1.20;1.20;;;21.00;99.90;;;;;;4952429;28;20594;-72
2022/07/08 12:36:45;;;;;;;0.87;0.87;;;21.10;99.90;;;;;;4952607;29;20464;-73
2022/07/08 12:39:14;;;;;;;1.40;0.93;;;21.20;99.90;;;;;;4952738;29;20977;-72
2022/07/08 12:41:41;;;;;;;2.20;1.50;;;21.20;99.90;;;;;;4952783;29;20501;-71
2022/07/08 12:44:29;;;;;;;1.63;1.20;;;21.40;99.90;;;;;;4950948;28;20480;-71
2022/07/08 12:46:56;;;;;;;1.73;1.30;;;21.40;99.90;;;;;;4942072;29;20469;-71
2022/07/08 12:49:23;;;;;;;1.10;1.10;;;21.30;99.90;;;;;;4951297;29;20966;-71
2022/07/08 12:51:51;;;;;;;1.40;1.40;;;21.30;99.90;;;;;;4951925;29;20482;-71
2022/07/08 12:54:18;;;;;;;1.57;1.47;;;21.30;99.90;;;;;;4949286;28;20496;-70
2022/07/08 12:56:44;;;;;;;1.10;1.10;;;21.20;99.90;;;;;;4944523;29;20475;-71
2022/07/08 12:59:11;;;;;;;1.10;1.10;;;21.30;99.90;;;;;;4952039;29;20468;-71
2022/07/08 13:01:39;;;;;;;1.37;1.30;;;21.30;99.90;;;;;;4952296;29;20469;-71
2022/07/08 13:04:06;;;;;;;0.87;0.87;;;21.40;99.90;;;;;;4950477;28;22180;-71
2022/07/08 13:06:33;;;;;;;1.70;1.60;;;21.60;99.90;;;;;;4952352;29;20467;-71
2022/07/08 13:09:00;;;;;;;1.20;1.20;;;21.50;99.90;;;;;;4950127;29;20568;-71
2022/07/08 13:11:27;;;;;;;1.47;1.47;;;21.40;99.90;;;;;;4952307;29;20465;-71
2022/07/08 13:13:53;;;;;;;1.13;1.13;;;21.50;99.90;;;;;;4950659;29;20922;-72
2022/07/08 13:16:20;;;;;;;1.23;1.23;;;21.40;99.90;;;;;;4951442;28;20499;-71
2022/07/08 13:18:48;;;;;;;0.93;0.90;;;21.20;99.90;;;;;;4941257;29;20461;-71
2022/07/08 13:21:15;;;;;;;1.20;1.10;;;21.00;99.90;;;;;;4951811;29;20465;-71
2022/07/08 13:23:42;;;;;;;1.50;1.40;;;21.00;99.90;;;;;;4950940;29;20475;-71
2022/07/08 13:26:09;;;;;;;1.47;1.40;;;21.10;99.90;;;;;;4947500;28;20495;-71
2022/07/08 13:28:36;;;;;;;1.23;1.23;;;21.30;99.90;;;;;;4951317;29;20461;-70
2022/07/08 13:31:02;;;;;;;1.60;1.60;;;21.30;99.90;;;;;;4951299;29;20989;-70
2022/07/08 13:33:29;;;;;;;1.83;1.83;;;21.10;99.90;;;;;;4951560;28;20468;-71
2022/07/08 13:35:58;;;;;;;1.20;1.20;;;21.10;99.90;;;;;;4951172;28;20972;-71
2022/07/08 13:38:24;;;;;;;1.10;1.10;;;21.10;99.90;;;;;;4952085;29;20945;-69
2022/07/08 13:40:51;;;;;;;1.33;1.10;;;21.10;99.90;;;;;;4951740;29;20476;-69
2022/07/08 13:43:18;;;;;;;1.27;1.27;;;21.20;99.90;;;;;;4951920;29;20461;-69
2022/07/08 13:45:45;;;;;;;1.50;1.40;;;21.50;99.90;;;;;;4950824;28;20582;-69
2022/07/08 13:48:12;;;;;;;1.60;1.40;;;21.90;99.90;;;;;;4951851;29;20471;-69
2022/07/08 13:50:39;;;;;;;1.00;1.00;;;22.00;99.90;;;;;;4951567;29;20469;-68
2022/07/08 13:53:07;;;;;;;1.30;1.30;;;22.00;99.90;;;;;;4951658;29;20496;-67
2022/07/08 13:55:33;;;;;;;1.70;1.60;;;22.00;99.90;;;;;;4950739;28;20508;-67
2022/07/08 13:58:00;;;;;;;1.43;1.43;;;22.00;99.90;;;;;;4951261;29;20461;-68
2022/07/08 14:00:27;;;;;;;1.60;1.50;;;21.90;99.90;;;;;;4951033;29;20842;-68
2022/07/08 14:02:56;;;;;;;1.30;1.30;;;21.80;99.90;;;;;;4951813;29;20480;-68
2022/07/08 14:05:22;;;;;;;3.33;1.37;;;21.80;99.90;;;;;;4950430;28;20482;-68
2022/07/08 14:07:49;;;;;;;1.40;1.40;;;21.90;99.90;;;;;;4951721;29;20492;-68
2022/07/08 14:10:17;;;;;;;2.70;1.83;;;21.90;99.90;;;;;;4947877;29;20476;-68
2022/07/08 14:12:44;;;;;;;1.30;1.30;;;21.90;99.90;;;;;;4950789;28;20468;-68
2022/07/08 14:15:11;;;;;;;1.70;1.60;;;22.30;99.90;;;;;;4943632;29;20493;-69
2022/07/08 14:17:38;;;;;;;1.50;1.37;;;22.40;99.90;;;;;;4950968;29;20460;-68
2022/07/08 14:20:06;;;;;;;1.20;1.20;;;22.40;99.90;;;;;;4949947;29;20479;-68
2022/07/08 14:22:33;;;;;;;1.50;1.40;;;22.40;99.90;;;;;;4951895;28;20471;-68
2022/07/08 14:25:00;;;;;;;1.40;1.40;;;22.20;99.90;;;;;;4951465;28;20481;-68
2022/07/08 14:27:28;;;;;;;1.53;1.50;;;22.10;99.90;;;;;;4951400;28;20465;-69
2022/07/08 14:29:55;;;;;;;2.13;1.70;;;21.90;99.90;;;;;;4953037;28;20469;-68
2022/07/08 14:32:21;;;;;;;1.40;1.40;;;21.90;99.90;;;;;;4954938;29;20460;-68
2022/07/08 14:34:48;;;;;;;1.60;1.50;;;21.80;99.90;;;;;;4950781;28;20491;-69
2022/07/08 14:37:15;;;;;;;3.30;1.57;;;21.80;99.90;;;;;;4955370;28;20964;-69
2022/07/08 14:39:41;;;;;;;1.93;1.80;;;21.80;99.90;;;;;;4962534;28;20957;-68
2022/07/08 14:42:08;;;;;;;1.33;1.33;;;21.90;99.90;;;;;;4952657;29;20472;-68
2022/07/08 14:44:36;;;;;;;1.60;1.50;;;21.90;99.90;;;;;;4954172;28;20491;-68
2022/07/08 14:47:04;;;;;;;1.40;1.30;;;21.80;99.90;;;;;;4954390;29;20460;-69
2022/07/08 14:49:31;;;;;;;1.60;1.50;;;22.00;99.90;;;;;;4954254;29;20469;-69
2022/07/08 14:51:57;;;;;;;2.13;1.90;;;22.10;99.90;;;;;;4953548;29;20469;-68
2022/07/08 14:54:25;;;;;;;1.67;1.57;;;22.10;99.90;;;;;;4952109;28;20492;-69
2022/07/08 14:56:53;;;;;;;1.97;1.80;;;22.10;99.90;;;;;;4954373;29;21099;-69
2022/07/08 14:59:20;;;;;;;1.70;1.60;;;22.10;99.90;;;;;;4953880;28;20953;-68
2022/07/08 15:01:48;;;;;;;2.50;1.73;;;22.30;99.90;;;;;;4953266;29;20472;-71
2022/07/08 15:04:15;;;;;;;1.70;1.70;;;22.40;99.90;;;;;;4952962;28;20838;-70
2022/07/08 15:06:42;;;;;;;3.37;2.00;;;22.60;99.90;;;;;;4952510;29;20475;-69
2022/07/08 15:09:09;;;;;;;2.30;1.90;;;22.60;99.90;;;;;;4954421;29;20867;-69
2022/07/08 15:11:35;;;;;;;1.97;1.87;;;22.60;99.90;;;;;;4953976;29;20464;-69
2022/07/08 15:14:02;;;;;;;2.37;2.17;;;22.70;99.90;;;;;;4952824;28;20464;-69
2022/07/08 15:16:29;;;;;;;3.20;1.93;;;22.60;99.90;;;;;;4950968;29;20499;-69
2022/07/08 15:18:57;;;;;;;1.73;1.63;;;22.60;99.90;;;;;;4953571;29;20461;-69
2022/07/08 15:21:24;;;;;;;2.80;2.60;;;22.60;99.90;;;;;;4953419;29;20462;-69
2022/07/08 15:23:51;;;;;;;2.17;2.07;;;22.40;99.90;;;;;;4954196;29;20926;-69
2022/07/08 15:26:19;;;;;;;3.13;1.90;;;22.40;99.90;;;;;;4952892;28;20491;-69
2022/07/08 15:28:45;;;;;;;2.07;2.07;;;22.40;99.90;;;;;;4952661;28;20465;-69
2022/07/08 15:31:12;;;;;;;6.00;1.87;;;22.30;99.90;;;;;;4953601;29;20461;-71
2022/07/08 15:33:41;;;;;;;2.00;1.70;;;22.20;99.90;;;;;;4954006;29;20491;-69
2022/07/08 15:36:10;;;;;;;2.17;2.07;;;22.30;99.90;;;;;;4951867;28;20865;-69
2022/07/08 15:38:36;;;;;;;2.17;2.07;;;22.50;99.90;;;;;;4953787;28;20473;-69
2022/07/08 15:41:03;;;;;;;1.97;1.97;;;22.50;99.90;;;;;;4953508;29;20833;-69
2022/07/08 15:43:30;;;;;;;2.27;1.83;;;22.50;99.90;;;;;;4952970;29;20465;-69
2022/07/08 15:45:57;;;;;;;2.07;1.97;;;22.50;99.90;;;;;;4952791;28;20524;-69
2022/07/08 15:48:23;;;;;;;2.73;1.87;;;22.60;99.90;;;;;;4953281;29;21255;-69
2022/07/08 15:50:50;;;;;;;4.40;2.27;;;22.80;99.90;;;;;;4953643;29;20571;-70
2022/07/08 15:53:19;;;;;;;3.10;2.27;;;22.90;99.90;;;;;;4953567;29;20488;-70
2022/07/08 15:55:45;;;;;;;2.10;2.00;;;23.00;99.90;;;;;;4952203;29;20897;-69
2022/07/08 15:58:12;;;;;;;2.33;2.13;;;23.00;99.90;;;;;;4952896;29;20988;-70
2022/07/08 16:00:39;;;;;;;2.20;2.10;;;23.20;99.90;;;;;;4953164;29;20472;-69
2022/07/08 16:03:06;;;;;;;2.10;2.00;;;23.10;99.90;;;;;;4953138;29;20472;-69
2022/07/08 16:05:32;;;;;;;2.80;2.50;;;22.70;99.90;;;;;;4951678;29;20511;-69
2022/07/08 16:07:59;;;;;;;3.70;2.10;;;22.50;99.90;;;;;;4952933;29;20836;-69
2022/07/08 16:10:27;;;;;;;2.67;2.50;;;22.50;99.90;;;;;;4953078;29;20471;-69
2022/07/08 16:12:54;;;;;;;4.33;2.47;;;22.40;99.90;;;;;;4952581;29;20807;-68
2022/07/08 16:15:20;;;;;;;1.50;1.40;;;22.40;99.90;;;;;;4947822;28;20519;-69
2022/07/08 16:17:47;;;;;;;1.90;1.80;;;22.30;99.90;;;;;;4951930;29;20479;-69
2022/07/08 16:20:14;;;;;;;1.83;1.57;;;22.30;99.90;;;;;;4950867;29;20814;-68
2022/07/08 16:22:41;;;;;;;1.70;1.60;;;22.30;99.90;;;;;;4952885;29;20474;-68
2022/07/08 16:25:08;;;;;;;2.03;1.80;;;22.20;99.90;;;;;;4952073;28;20488;-67
2022/07/08 16:27:36;;;;;;;2.17;2.03;;;22.10;99.90;;;;;;4953161;28;20472;-67
2022/07/08 16:30:05;;;;;;;1.57;1.47;;;22.10;99.90;;;;;;4951878;29;20445;-67
2022/07/08 16:32:32;;;;;;;2.10;1.80;;;22.10;99.90;;;;;;4952547;29;20552;-68
2022/07/08 16:34:59;;;;;;;6.20;2.23;;;22.20;99.90;;;;;;4950916;28;20532;-68
2022/07/08 16:37:25;;;;;;;5.40;1.57;;;22.30;99.90;;;;;;4952358;29;20469;-68
2022/07/08 16:39:52;;;;;;;2.70;1.53;;;22.30;99.90;;;;;;4952521;29;21201;-68
2022/07/08 16:42:19;;;;;;;4.47;2.30;;;22.40;99.90;;;;;;4952774;29;20539;-68
2022/07/08 16:44:47;;;;;;;2.20;2.00;;;22.50;99.90;;;;;;4950862;28;20495;-68
2022/07/08 16:47:14;;;;;;;3.07;2.00;;;22.50;99.90;;;;;;4952962;29;20542;-68
2022/07/08 16:49:41;;;;;;;2.27;2.07;;;22.50;99.90;;;;;;4952291;29;20465;-68
2022/07/08 16:52:08;;;;;;;2.03;1.73;;;22.50;99.90;;;;;;4952125;28;20552;-68